sensor_id;sensor_type;location;lat;lon;timestamp;P1;durP1;ratioP1;P2;durP2;ratioP2
76136;SDS011;68622;53.128;17.966;2023-05-10T00:00:28;7.40;;;3.20;;
76136;SDS011;68622;53.128;17.966;2023-05-10T00:03:08;9.10;;;2.90;;
76136;SDS011;68622;53.128;17.966;2023-05-10T00:05:34;7.60;;;3.00;;
76136;SDS011;68622;53.128;17.966;2023-05-10T00:08:00;9.60;;;3.60;;
76136;SDS011;68622;53.128;17.966;2023-05-10T00:10:26;8.70;;;3.30;;
76136;SDS011;68622;53.128;17.966;2023-05-10T00:12:52;9.60;;;3.10;;
76136;SDS011;68622;53.128;17.966;2023-05-10T00:15:17;9.00;;;3.10;;
76136;SDS011;68622;53.128;17.966;2023-05-10T00:17:43;8.70;;;4.20;;
76136;SDS011;68622;53.128;17.966;2023-05-10T00:20:10;8.40;;;2.80;;
76136;SDS011;68622;53.128;17.966;2023-05-10T00:22:36;7.30;;;3.10;;
76136;SDS011;68622;53.128;17.966;2023-05-10T00:25:02;8.70;;;2.80;;
76136;SDS011;68622;53.128;17.966;2023-05-10T00:27:28;7.00;;;2.80;;
76136;SDS011;68622;53.128;17.966;2023-05-10T00:29:54;7.70;;;3.10;;
76136;SDS011;68622;53.128;17.966;2023-05-10T00:32:20;8.90;;;3.70;;
76136;SDS011;68622;53.128;17.966;2023-05-10T00:34:46;7.30;;;2.90;;
76136;SDS011;68622;53.128;17.966;2023-05-10T00:37:12;8.40;;;2.80;;
76136;SDS011;68622;53.128;17.966;2023-05-10T00:39:37;7.00;;;2.60;;
76136;SDS011;68622;53.128;17.966;2023-05-10T00:42:04;8.50;;;2.80;;
76136;SDS011;68622;53.128;17.966;2023-05-10T00:44:30;9.10;;;2.80;;
76136;SDS011;68622;53.128;17.966;2023-05-10T00:46:56;8.00;;;2.60;;
76136;SDS011;68622;53.128;17.966;2023-05-10T00:49:23;8.50;;;2.90;;
76136;SDS011;68622;53.128;17.966;2023-05-10T00:51:49;10.30;;;3.00;;
76136;SDS011;68622;53.128;17.966;2023-05-10T00:54:15;7.60;;;2.80;;
76136;SDS011;68622;53.128;17.966;2023-05-10T00:56:42;9.20;;;3.30;;
76136;SDS011;68622;53.128;17.966;2023-05-10T00:59:14;7.00;;;2.90;;
76136;SDS011;68622;53.128;17.966;2023-05-10T01:01:42;7.80;;;2.70;;
76136;SDS011;68622;53.128;17.966;2023-05-10T01:04:12;7.20;;;2.70;;
76136;SDS011;68622;53.128;17.966;2023-05-10T01:06:42;7.10;;;2.80;;
76136;SDS011;68622;53.128;17.966;2023-05-10T01:09:09;8.30;;;2.90;;
76136;SDS011;68622;53.128;17.966;2023-05-10T01:11:36;6.80;;;2.60;;
76136;SDS011;68622;53.128;17.966;2023-05-10T01:14:03;6.20;;;2.50;;
76136;SDS011;68622;53.128;17.966;2023-05-10T01:16:33;7.30;;;3.00;;
76136;SDS011;68622;53.128;17.966;2023-05-10T01:19:02;8.10;;;2.80;;
76136;SDS011;68622;53.128;17.966;2023-05-10T01:24:42;9.30;;;2.40;;
76136;SDS011;68622;53.128;17.966;2023-05-10T01:27:25;8.30;;;2.70;;
76136;SDS011;68622;53.128;17.966;2023-05-10T01:30:24;8.40;;;2.30;;
76136;SDS011;68622;53.128;17.966;2023-05-10T01:33:36;6.70;;;2.30;;
76136;SDS011;68622;53.128;17.966;2023-05-10T01:35:59;8.60;;;3.00;;
76136;SDS011;68622;53.128;17.966;2023-05-10T01:47:10;6.80;;;2.40;;
76136;SDS011;68622;53.128;17.966;2023-05-10T01:49:43;7.60;;;2.90;;
76136;SDS011;68622;53.128;17.966;2023-05-10T01:52:15;9.30;;;3.10;;
76136;SDS011;68622;53.128;17.966;2023-05-10T01:54:49;9.80;;;2.80;;
76136;SDS011;68622;53.128;17.966;2023-05-10T01:57:19;8.10;;;2.80;;
76136;SDS011;68622;53.128;17.966;2023-05-10T01:59:48;13.20;;;2.80;;
76136;SDS011;68622;53.128;17.966;2023-05-10T02:02:17;9.20;;;3.00;;
76136;SDS011;68622;53.128;17.966;2023-05-10T02:04:46;11.80;;;3.30;;
76136;SDS011;68622;53.128;17.966;2023-05-10T02:07:15;8.10;;;2.80;;
76136;SDS011;68622;53.128;17.966;2023-05-10T02:09:43;10.00;;;3.10;;
76136;SDS011;68622;53.128;17.966;2023-05-10T02:12:13;7.70;;;3.20;;
76136;SDS011;68622;53.128;17.966;2023-05-10T02:14:40;7.50;;;3.20;;
76136;SDS011;68622;53.128;17.966;2023-05-10T02:17:07;7.20;;;2.70;;
76136;SDS011;68622;53.128;17.966;2023-05-10T02:19:38;8.40;;;2.90;;
76136;SDS011;68622;53.128;17.966;2023-05-10T02:22:07;10.20;;;3.00;;
76136;SDS011;68622;53.128;17.966;2023-05-10T02:24:35;7.90;;;3.20;;
76136;SDS011;68622;53.128;17.966;2023-05-10T02:27:03;7.40;;;2.60;;
76136;SDS011;68622;53.128;17.966;2023-05-10T02:29:31;12.00;;;3.10;;
76136;SDS011;68622;53.128;17.966;2023-05-10T02:31:58;9.50;;;3.20;;
76136;SDS011;68622;53.128;17.966;2023-05-10T02:34:25;7.50;;;3.00;;
76136;SDS011;68622;53.128;17.966;2023-05-10T02:36:53;8.40;;;3.10;;
76136;SDS011;68622;53.128;17.966;2023-05-10T02:39:19;8.80;;;2.90;;
76136;SDS011;68622;53.128;17.966;2023-05-10T02:41:46;9.70;;;3.60;;
76136;SDS011;68622;53.128;17.966;2023-05-10T02:44:14;8.20;;;3.20;;
76136;SDS011;68622;53.128;17.966;2023-05-10T02:46:45;8.20;;;3.60;;
76136;SDS011;68622;53.128;17.966;2023-05-10T02:49:12;9.00;;;3.40;;
76136;SDS011;68622;53.128;17.966;2023-05-10T02:51:40;10.00;;;3.60;;
76136;SDS011;68622;53.128;17.966;2023-05-10T02:54:13;9.90;;;3.50;;
76136;SDS011;68622;53.128;17.966;2023-05-10T02:56:47;11.80;;;3.50;;
76136;SDS011;68622;53.128;17.966;2023-05-10T02:59:19;13.10;;;3.20;;
76136;SDS011;68622;53.128;17.966;2023-05-10T03:01:45;15.90;;;4.00;;
76136;SDS011;68622;53.128;17.966;2023-05-10T03:04:12;9.50;;;2.90;;
76136;SDS011;68622;53.128;17.966;2023-05-10T03:06:39;10.40;;;3.70;;
76136;SDS011;68622;53.128;17.966;2023-05-10T03:09:05;9.10;;;3.00;;
76136;SDS011;68622;53.128;17.966;2023-05-10T03:12:18;11.00;;;3.90;;
76136;SDS011;68622;53.128;17.966;2023-05-10T03:20:04;11.90;;;3.40;;
76136;SDS011;68622;53.128;17.966;2023-05-10T03:22:37;11.00;;;3.90;;
76136;SDS011;68622;53.128;17.966;2023-05-10T03:25:06;9.90;;;3.70;;
76136;SDS011;68622;53.128;17.966;2023-05-10T03:27:37;10.50;;;3.40;;
76136;SDS011;68622;53.128;17.966;2023-05-10T03:30:07;10.00;;;3.80;;
76136;SDS011;68622;53.128;17.966;2023-05-10T03:32:36;9.10;;;3.10;;
76136;SDS011;68622;53.128;17.966;2023-05-10T03:35:07;13.50;;;4.10;;
76136;SDS011;68622;53.128;17.966;2023-05-10T03:37:34;10.30;;;3.80;;
76136;SDS011;68622;53.128;17.966;2023-05-10T03:40:01;11.40;;;4.20;;
76136;SDS011;68622;53.128;17.966;2023-05-10T03:42:28;10.30;;;3.80;;
76136;SDS011;68622;53.128;17.966;2023-05-10T03:44:54;9.80;;;3.10;;
76136;SDS011;68622;53.128;17.966;2023-05-10T03:47:20;7.80;;;3.50;;
76136;SDS011;68622;53.128;17.966;2023-05-10T03:49:46;10.50;;;3.40;;
76136;SDS011;68622;53.128;17.966;2023-05-10T03:52:12;9.10;;;4.20;;
76136;SDS011;68622;53.128;17.966;2023-05-10T03:54:38;11.80;;;3.40;;
76136;SDS011;68622;53.128;17.966;2023-05-10T03:57:04;10.00;;;3.70;;
76136;SDS011;68622;53.128;17.966;2023-05-10T03:59:31;9.40;;;3.20;;
76136;SDS011;68622;53.128;17.966;2023-05-10T04:01:57;10.40;;;3.80;;
76136;SDS011;68622;53.128;17.966;2023-05-10T04:04:22;10.90;;;3.70;;
76136;SDS011;68622;53.128;17.966;2023-05-10T04:06:49;8.70;;;3.40;;
76136;SDS011;68622;53.128;17.966;2023-05-10T04:09:15;11.80;;;5.70;;
76136;SDS011;68622;53.128;17.966;2023-05-10T04:11:42;9.90;;;4.70;;
76136;SDS011;68622;53.128;17.966;2023-05-10T04:14:08;12.40;;;4.20;;
76136;SDS011;68622;53.128;17.966;2023-05-10T04:16:34;11.00;;;3.80;;
76136;SDS011;68622;53.128;17.966;2023-05-10T04:19:00;10.10;;;3.20;;
76136;SDS011;68622;53.128;17.966;2023-05-10T04:21:26;8.80;;;3.20;;
76136;SDS011;68622;53.128;17.966;2023-05-10T04:23:52;10.60;;;3.40;;
76136;SDS011;68622;53.128;17.966;2023-05-10T04:26:18;12.80;;;4.30;;
76136;SDS011;68622;53.128;17.966;2023-05-10T04:28:44;10.50;;;4.90;;
76136;SDS011;68622;53.128;17.966;2023-05-10T04:31:10;10.30;;;3.30;;
76136;SDS011;68622;53.128;17.966;2023-05-10T04:33:36;8.80;;;3.90;;
76136;SDS011;68622;53.128;17.966;2023-05-10T04:36:03;9.30;;;4.80;;
76136;SDS011;68622;53.128;17.966;2023-05-10T04:38:29;15.10;;;8.50;;
76136;SDS011;68622;53.128;17.966;2023-05-10T04:41:03;10.00;;;4.60;;
76136;SDS011;68622;53.128;17.966;2023-05-10T04:43:30;10.30;;;3.90;;
76136;SDS011;68622;53.128;17.966;2023-05-10T04:45:56;14.00;;;4.40;;
76136;SDS011;68622;53.128;17.966;2023-05-10T04:48:22;9.80;;;3.60;;
76136;SDS011;68622;53.128;17.966;2023-05-10T04:50:48;8.80;;;3.20;;
76136;SDS011;68622;53.128;17.966;2023-05-10T04:53:14;10.40;;;4.20;;
76136;SDS011;68622;53.128;17.966;2023-05-10T04:55:40;11.00;;;3.20;;
76136;SDS011;68622;53.128;17.966;2023-05-10T04:58:06;10.50;;;4.20;;
76136;SDS011;68622;53.128;17.966;2023-05-10T05:00:32;16.50;;;4.40;;
76136;SDS011;68622;53.128;17.966;2023-05-10T05:02:59;12.00;;;3.60;;
76136;SDS011;68622;53.128;17.966;2023-05-10T05:05:25;10.80;;;4.00;;
76136;SDS011;68622;53.128;17.966;2023-05-10T05:07:51;12.00;;;4.10;;
76136;SDS011;68622;53.128;17.966;2023-05-10T05:10:17;10.10;;;3.60;;
76136;SDS011;68622;53.128;17.966;2023-05-10T05:12:43;9.80;;;3.80;;
76136;SDS011;68622;53.128;17.966;2023-05-10T05:15:09;12.10;;;4.00;;
76136;SDS011;68622;53.128;17.966;2023-05-10T05:17:35;10.10;;;3.70;;
76136;SDS011;68622;53.128;17.966;2023-05-10T05:20:01;11.00;;;3.50;;
76136;SDS011;68622;53.128;17.966;2023-05-10T05:22:27;9.00;;;3.10;;
76136;SDS011;68622;53.128;17.966;2023-05-10T05:24:54;11.30;;;4.40;;
76136;SDS011;68622;53.128;17.966;2023-05-10T05:27:20;11.50;;;5.10;;
76136;SDS011;68622;53.128;17.966;2023-05-10T05:29:53;10.00;;;4.10;;
76136;SDS011;68622;53.128;17.966;2023-05-10T05:32:19;10.40;;;3.90;;
76136;SDS011;68622;53.128;17.966;2023-05-10T05:34:45;9.60;;;3.60;;
76136;SDS011;68622;53.128;17.966;2023-05-10T05:37:12;9.60;;;3.40;;
76136;SDS011;68622;53.128;17.966;2023-05-10T05:39:40;10.80;;;3.50;;
76136;SDS011;68622;53.128;17.966;2023-05-10T05:42:05;6.90;;;3.10;;
76136;SDS011;68622;53.128;17.966;2023-05-10T05:44:31;9.90;;;2.60;;
76136;SDS011;68622;53.128;17.966;2023-05-10T05:46:57;9.70;;;3.40;;
76136;SDS011;68622;53.128;17.966;2023-05-10T05:49:23;9.60;;;3.20;;
76136;SDS011;68622;53.128;17.966;2023-05-10T05:51:49;6.80;;;2.60;;
76136;SDS011;68622;53.128;17.966;2023-05-10T05:54:15;7.90;;;3.10;;
76136;SDS011;68622;53.128;17.966;2023-05-10T05:56:41;8.70;;;2.80;;
76136;SDS011;68622;53.128;17.966;2023-05-10T05:59:08;10.20;;;3.00;;
76136;SDS011;68622;53.128;17.966;2023-05-10T06:01:33;9.10;;;3.10;;
76136;SDS011;68622;53.128;17.966;2023-05-10T06:03:59;9.30;;;3.00;;
76136;SDS011;68622;53.128;17.966;2023-05-10T06:06:25;11.20;;;3.30;;
76136;SDS011;68622;53.128;17.966;2023-05-10T06:08:51;7.10;;;2.60;;
76136;SDS011;68622;53.128;17.966;2023-05-10T06:11:17;8.90;;;2.60;;
76136;SDS011;68622;53.128;17.966;2023-05-10T06:13:43;8.60;;;2.60;;
76136;SDS011;68622;53.128;17.966;2023-05-10T06:16:09;8.40;;;2.50;;
76136;SDS011;68622;53.128;17.966;2023-05-10T06:18:34;8.00;;;2.40;;
76136;SDS011;68622;53.128;17.966;2023-05-10T06:21:00;6.70;;;2.80;;
76136;SDS011;68622;53.128;17.966;2023-05-10T06:23:26;7.60;;;2.70;;
76136;SDS011;68622;53.128;17.966;2023-05-10T06:25:52;8.90;;;2.90;;
76136;SDS011;68622;53.128;17.966;2023-05-10T06:28:18;6.20;;;2.60;;
76136;SDS011;68622;53.128;17.966;2023-05-10T06:30:44;7.10;;;2.70;;
76136;SDS011;68622;53.128;17.966;2023-05-10T06:33:10;9.20;;;2.80;;
76136;SDS011;68622;53.128;17.966;2023-05-10T06:35:36;7.50;;;2.70;;
76136;SDS011;68622;53.128;17.966;2023-05-10T06:38:02;6.50;;;2.80;;
76136;SDS011;68622;53.128;17.966;2023-05-10T06:40:28;10.60;;;3.40;;
76136;SDS011;68622;53.128;17.966;2023-05-10T06:42:54;6.60;;;2.70;;
76136;SDS011;68622;53.128;17.966;2023-05-10T06:45:20;8.10;;;3.20;;
76136;SDS011;68622;53.128;17.966;2023-05-10T06:47:46;8.80;;;2.80;;
76136;SDS011;68622;53.128;17.966;2023-05-10T06:50:12;7.10;;;2.40;;
76136;SDS011;68622;53.128;17.966;2023-05-10T06:52:38;5.80;;;2.50;;
76136;SDS011;68622;53.128;17.966;2023-05-10T06:55:04;7.40;;;2.90;;
76136;SDS011;68622;53.128;17.966;2023-05-10T06:57:30;8.70;;;2.50;;
76136;SDS011;68622;53.128;17.966;2023-05-10T06:59:58;8.20;;;2.80;;
76136;SDS011;68622;53.128;17.966;2023-05-10T07:02:24;6.90;;;2.50;;
76136;SDS011;68622;53.128;17.966;2023-05-10T07:04:50;9.70;;;3.10;;
76136;SDS011;68622;53.128;17.966;2023-05-10T07:07:17;9.10;;;2.80;;
76136;SDS011;68622;53.128;17.966;2023-05-10T07:09:43;9.50;;;2.60;;
76136;SDS011;68622;53.128;17.966;2023-05-10T07:12:10;7.40;;;3.00;;
76136;SDS011;68622;53.128;17.966;2023-05-10T07:14:36;8.80;;;2.10;;
76136;SDS011;68622;53.128;17.966;2023-05-10T07:17:02;5.80;;;2.00;;
76136;SDS011;68622;53.128;17.966;2023-05-10T07:19:28;7.30;;;2.40;;
76136;SDS011;68622;53.128;17.966;2023-05-10T07:21:55;5.70;;;2.00;;
76136;SDS011;68622;53.128;17.966;2023-05-10T07:24:21;8.60;;;2.80;;
76136;SDS011;68622;53.128;17.966;2023-05-10T07:26:47;9.30;;;2.60;;
76136;SDS011;68622;53.128;17.966;2023-05-10T07:29:12;7.20;;;2.40;;
76136;SDS011;68622;53.128;17.966;2023-05-10T07:31:38;12.10;;;2.50;;
76136;SDS011;68622;53.128;17.966;2023-05-10T07:34:07;7.80;;;2.70;;
76136;SDS011;68622;53.128;17.966;2023-05-10T07:36:33;7.10;;;2.80;;
76136;SDS011;68622;53.128;17.966;2023-05-10T07:38:59;8.70;;;2.40;;
76136;SDS011;68622;53.128;17.966;2023-05-10T07:41:25;7.00;;;2.50;;
76136;SDS011;68622;53.128;17.966;2023-05-10T07:43:51;7.30;;;2.30;;
76136;SDS011;68622;53.128;17.966;2023-05-10T07:46:17;9.50;;;2.30;;
76136;SDS011;68622;53.128;17.966;2023-05-10T07:48:45;6.50;;;2.50;;
76136;SDS011;68622;53.128;17.966;2023-05-10T07:51:11;6.30;;;2.20;;
76136;SDS011;68622;53.128;17.966;2023-05-10T07:53:37;8.50;;;2.40;;
76136;SDS011;68622;53.128;17.966;2023-05-10T07:56:21;7.00;;;2.30;;
76136;SDS011;68622;53.128;17.966;2023-05-10T07:58:47;11.30;;;2.90;;
76136;SDS011;68622;53.128;17.966;2023-05-10T08:01:13;9.50;;;2.10;;
76136;SDS011;68622;53.128;17.966;2023-05-10T08:03:39;7.30;;;2.20;;
76136;SDS011;68622;53.128;17.966;2023-05-10T08:06:05;5.30;;;1.90;;
76136;SDS011;68622;53.128;17.966;2023-05-10T08:08:31;7.40;;;2.30;;
76136;SDS011;68622;53.128;17.966;2023-05-10T08:10:57;9.30;;;2.90;;
76136;SDS011;68622;53.128;17.966;2023-05-10T08:13:23;9.00;;;2.70;;
76136;SDS011;68622;53.128;17.966;2023-05-10T08:15:49;8.70;;;2.20;;
76136;SDS011;68622;53.128;17.966;2023-05-10T08:18:17;8.90;;;2.70;;
76136;SDS011;68622;53.128;17.966;2023-05-10T08:20:43;5.80;;;2.00;;
76136;SDS011;68622;53.128;17.966;2023-05-10T08:23:09;7.00;;;2.30;;
76136;SDS011;68622;53.128;17.966;2023-05-10T08:25:34;6.10;;;2.60;;
76136;SDS011;68622;53.128;17.966;2023-05-10T08:28:01;8.20;;;2.40;;
76136;SDS011;68622;53.128;17.966;2023-05-10T08:30:27;7.10;;;2.30;;
76136;SDS011;68622;53.128;17.966;2023-05-10T08:32:53;5.10;;;1.90;;
76136;SDS011;68622;53.128;17.966;2023-05-10T08:35:19;8.30;;;2.00;;
76136;SDS011;68622;53.128;17.966;2023-05-10T08:37:45;7.90;;;2.20;;
76136;SDS011;68622;53.128;17.966;2023-05-10T08:40:11;6.30;;;2.60;;
76136;SDS011;68622;53.128;17.966;2023-05-10T08:42:39;10.10;;;2.40;;
76136;SDS011;68622;53.128;17.966;2023-05-10T08:45:09;10.30;;;2.70;;
76136;SDS011;68622;53.128;17.966;2023-05-10T08:47:36;10.20;;;2.30;;
76136;SDS011;68622;53.128;17.966;2023-05-10T08:50:04;5.90;;;1.70;;
76136;SDS011;68622;53.128;17.966;2023-05-10T08:52:31;7.20;;;2.30;;
76136;SDS011;68622;53.128;17.966;2023-05-10T08:54:59;8.60;;;2.50;;
76136;SDS011;68622;53.128;17.966;2023-05-10T08:57:25;7.90;;;2.50;;
76136;SDS011;68622;53.128;17.966;2023-05-10T08:59:51;7.30;;;2.50;;
76136;SDS011;68622;53.128;17.966;2023-05-10T09:02:18;7.20;;;2.50;;
76136;SDS011;68622;53.128;17.966;2023-05-10T09:04:46;7.00;;;2.10;;
76136;SDS011;68622;53.128;17.966;2023-05-10T09:07:12;7.30;;;2.30;;
76136;SDS011;68622;53.128;17.966;2023-05-10T09:09:38;9.10;;;2.40;;
76136;SDS011;68622;53.128;17.966;2023-05-10T09:12:04;4.50;;;1.90;;
76136;SDS011;68622;53.128;17.966;2023-05-10T09:14:30;8.70;;;2.70;;
76136;SDS011;68622;53.128;17.966;2023-05-10T09:17:01;7.00;;;2.50;;
76136;SDS011;68622;53.128;17.966;2023-05-10T09:19:27;9.10;;;2.30;;
76136;SDS011;68622;53.128;17.966;2023-05-10T09:21:53;10.40;;;2.20;;
76136;SDS011;68622;53.128;17.966;2023-05-10T09:24:19;6.70;;;2.30;;
76136;SDS011;68622;53.128;17.966;2023-05-10T09:26:51;10.20;;;2.80;;
76136;SDS011;68622;53.128;17.966;2023-05-10T09:29:17;8.80;;;2.10;;
76136;SDS011;68622;53.128;17.966;2023-05-10T09:34:28;6.20;;;2.60;;
76136;SDS011;68622;53.128;17.966;2023-05-10T09:36:59;7.00;;;2.50;;
76136;SDS011;68622;53.128;17.966;2023-05-10T09:39:33;7.00;;;2.30;;
76136;SDS011;68622;53.128;17.966;2023-05-10T09:42:05;8.40;;;2.00;;
76136;SDS011;68622;53.128;17.966;2023-05-10T09:44:33;9.80;;;2.70;;
76136;SDS011;68622;53.128;17.966;2023-05-10T09:47:00;9.80;;;2.80;;
76136;SDS011;68622;53.128;17.966;2023-05-10T09:49:28;9.40;;;2.80;;
76136;SDS011;68622;53.128;17.966;2023-05-10T09:52:01;6.80;;;2.40;;
76136;SDS011;68622;53.128;17.966;2023-05-10T09:54:28;5.20;;;2.00;;
76136;SDS011;68622;53.128;17.966;2023-05-10T09:56:54;9.60;;;2.60;;
76136;SDS011;68622;53.128;17.966;2023-05-10T09:59:20;7.80;;;2.40;;
76136;SDS011;68622;53.128;17.966;2023-05-10T10:01:49;5.70;;;2.10;;
76136;SDS011;68622;53.128;17.966;2023-05-10T10:04:20;12.70;;;3.20;;
76136;SDS011;68622;53.128;17.966;2023-05-10T10:06:47;11.60;;;3.40;;
76136;SDS011;68622;53.128;17.966;2023-05-10T10:09:25;6.80;;;2.60;;
76136;SDS011;68622;53.128;17.966;2023-05-10T10:11:52;8.60;;;2.60;;
76136;SDS011;68622;53.128;17.966;2023-05-10T10:14:20;5.30;;;2.40;;
76136;SDS011;68622;53.128;17.966;2023-05-10T10:16:48;11.10;;;2.50;;
76136;SDS011;68622;53.128;17.966;2023-05-10T10:19:16;6.80;;;2.30;;
76136;SDS011;68622;53.128;17.966;2023-05-10T10:21:51;7.50;;;2.00;;
76136;SDS011;68622;53.128;17.966;2023-05-10T10:24:17;6.10;;;2.10;;
76136;SDS011;68622;53.128;17.966;2023-05-10T10:26:43;9.70;;;3.70;;
76136;SDS011;68622;53.128;17.966;2023-05-10T10:29:26;7.80;;;2.60;;
76136;SDS011;68622;53.128;17.966;2023-05-10T10:32:48;8.20;;;2.80;;
76136;SDS011;68622;53.128;17.966;2023-05-10T10:35:12;9.00;;;3.60;;
76136;SDS011;68622;53.128;17.966;2023-05-10T10:37:45;9.50;;;2.80;;
76136;SDS011;68622;53.128;17.966;2023-05-10T10:40:25;6.90;;;2.30;;
76136;SDS011;68622;53.128;17.966;2023-05-10T10:42:55;8.80;;;2.60;;
76136;SDS011;68622;53.128;17.966;2023-05-10T10:45:41;7.50;;;2.50;;
76136;SDS011;68622;53.128;17.966;2023-05-10T10:48:21;6.80;;;2.60;;
76136;SDS011;68622;53.128;17.966;2023-05-10T10:50:51;7.30;;;2.20;;
76136;SDS011;68622;53.128;17.966;2023-05-10T10:53:22;9.90;;;2.90;;
76136;SDS011;68622;53.128;17.966;2023-05-10T10:55:48;7.70;;;2.20;;
76136;SDS011;68622;53.128;17.966;2023-05-10T10:58:30;7.80;;;2.70;;
76136;SDS011;68622;53.128;17.966;2023-05-10T11:01:10;6.90;;;2.10;;
76136;SDS011;68622;53.128;17.966;2023-05-10T11:03:38;7.80;;;2.20;;
76136;SDS011;68622;53.128;17.966;2023-05-10T11:06:05;7.50;;;2.40;;
76136;SDS011;68622;53.128;17.966;2023-05-10T11:08:32;8.00;;;3.00;;
76136;SDS011;68622;53.128;17.966;2023-05-10T11:21:27;16.50;;;2.90;;
76136;SDS011;68622;53.128;17.966;2023-05-10T11:23:55;11.20;;;2.70;;
76136;SDS011;68622;53.128;17.966;2023-05-10T11:26:26;8.00;;;2.40;;
76136;SDS011;68622;53.128;17.966;2023-05-10T11:28:57;6.90;;;1.90;;
76136;SDS011;68622;53.128;17.966;2023-05-10T11:31:27;9.20;;;2.70;;
76136;SDS011;68622;53.128;17.966;2023-05-10T11:33:54;7.10;;;3.10;;
76136;SDS011;68622;53.128;17.966;2023-05-10T11:36:35;7.10;;;2.70;;
76136;SDS011;68622;53.128;17.966;2023-05-10T11:39:02;9.90;;;2.90;;
76136;SDS011;68622;53.128;17.966;2023-05-10T11:41:29;9.30;;;2.80;;
76136;SDS011;68622;53.128;17.966;2023-05-10T11:43:56;7.30;;;2.50;;
76136;SDS011;68622;53.128;17.966;2023-05-10T11:46:26;9.70;;;2.50;;
76136;SDS011;68622;53.128;17.966;2023-05-10T11:48:55;8.70;;;1.90;;
76136;SDS011;68622;53.128;17.966;2023-05-10T11:51:27;7.00;;;2.20;;
76136;SDS011;68622;53.128;17.966;2023-05-10T11:53:54;8.30;;;2.50;;
76136;SDS011;68622;53.128;17.966;2023-05-10T11:56:20;7.80;;;2.30;;
76136;SDS011;68622;53.128;17.966;2023-05-10T11:58:52;10.00;;;2.20;;
76136;SDS011;68622;53.128;17.966;2023-05-10T12:01:22;9.10;;;2.50;;
76136;SDS011;68622;53.128;17.966;2023-05-10T12:03:53;7.80;;;2.60;;
76136;SDS011;68622;53.128;17.966;2023-05-10T12:06:25;8.00;;;2.60;;
76136;SDS011;68622;53.128;17.966;2023-05-10T12:08:52;8.40;;;3.10;;
76136;SDS011;68622;53.128;17.966;2023-05-10T12:11:19;7.40;;;2.90;;
76136;SDS011;68622;53.128;17.966;2023-05-10T12:13:47;9.10;;;3.10;;
76136;SDS011;68622;53.128;17.966;2023-05-10T12:16:13;11.30;;;2.70;;
76136;SDS011;68622;53.128;17.966;2023-05-10T12:18:44;8.80;;;2.10;;
76136;SDS011;68622;53.128;17.966;2023-05-10T12:21:13;8.80;;;2.80;;
76136;SDS011;68622;53.128;17.966;2023-05-10T12:23:40;7.50;;;2.30;;
76136;SDS011;68622;53.128;17.966;2023-05-10T12:26:10;11.00;;;2.60;;
76136;SDS011;68622;53.128;17.966;2023-05-10T12:28:36;8.60;;;2.10;;
76136;SDS011;68622;53.128;17.966;2023-05-10T12:31:03;10.10;;;2.60;;
76136;SDS011;68622;53.128;17.966;2023-05-10T12:33:36;9.50;;;2.30;;
76136;SDS011;68622;53.128;17.966;2023-05-10T12:36:09;7.40;;;2.20;;
76136;SDS011;68622;53.128;17.966;2023-05-10T12:38:39;12.70;;;2.60;;
76136;SDS011;68622;53.128;17.966;2023-05-10T12:41:09;10.00;;;2.50;;
76136;SDS011;68622;53.128;17.966;2023-05-10T12:43:36;8.30;;;2.50;;
76136;SDS011;68622;53.128;17.966;2023-05-10T12:48:36;8.20;;;3.20;;
76136;SDS011;68622;53.128;17.966;2023-05-10T12:51:04;11.30;;;4.60;;
76136;SDS011;68622;53.128;17.966;2023-05-10T12:53:30;12.30;;;4.00;;
76136;SDS011;68622;53.128;17.966;2023-05-10T12:55:57;12.60;;;3.50;;
76136;SDS011;68622;53.128;17.966;2023-05-10T12:58:23;16.30;;;3.20;;
76136;SDS011;68622;53.128;17.966;2023-05-10T13:00:49;9.60;;;3.30;;
76136;SDS011;68622;53.128;17.966;2023-05-10T13:03:17;8.80;;;2.70;;
76136;SDS011;68622;53.128;17.966;2023-05-10T13:05:43;12.40;;;2.60;;
76136;SDS011;68622;53.128;17.966;2023-05-10T13:08:09;8.50;;;2.50;;
76136;SDS011;68622;53.128;17.966;2023-05-10T13:10:35;11.50;;;2.50;;
76136;SDS011;68622;53.128;17.966;2023-05-10T13:13:01;12.80;;;2.70;;
76136;SDS011;68622;53.128;17.966;2023-05-10T13:15:27;9.60;;;2.50;;
76136;SDS011;68622;53.128;17.966;2023-05-10T13:17:53;11.60;;;3.30;;
76136;SDS011;68622;53.128;17.966;2023-05-10T13:20:20;9.60;;;2.30;;
76136;SDS011;68622;53.128;17.966;2023-05-10T13:22:46;15.20;;;2.50;;
76136;SDS011;68622;53.128;17.966;2023-05-10T13:25:12;8.90;;;2.90;;
76136;SDS011;68622;53.128;17.966;2023-05-10T13:27:39;11.80;;;3.20;;
76136;SDS011;68622;53.128;17.966;2023-05-10T13:30:07;9.10;;;2.80;;
76136;SDS011;68622;53.128;17.966;2023-05-10T13:32:34;9.20;;;2.80;;
76136;SDS011;68622;53.128;17.966;2023-05-10T13:35:01;7.70;;;2.50;;
76136;SDS011;68622;53.128;17.966;2023-05-10T13:37:29;9.30;;;3.60;;
76136;SDS011;68622;53.128;17.966;2023-05-10T13:39:56;12.80;;;3.20;;
76136;SDS011;68622;53.128;17.966;2023-05-10T13:42:22;9.50;;;2.80;;
76136;SDS011;68622;53.128;17.966;2023-05-10T13:44:52;7.10;;;2.40;;
76136;SDS011;68622;53.128;17.966;2023-05-10T13:47:18;6.40;;;2.30;;
76136;SDS011;68622;53.128;17.966;2023-05-10T13:49:44;8.90;;;2.90;;
76136;SDS011;68622;53.128;17.966;2023-05-10T13:52:10;9.20;;;2.70;;
76136;SDS011;68622;53.128;17.966;2023-05-10T13:54:36;9.40;;;2.80;;
76136;SDS011;68622;53.128;17.966;2023-05-10T13:57:03;8.20;;;3.00;;
76136;SDS011;68622;53.128;17.966;2023-05-10T13:59:30;8.50;;;3.00;;
76136;SDS011;68622;53.128;17.966;2023-05-10T14:01:57;9.10;;;2.70;;
76136;SDS011;68622;53.128;17.966;2023-05-10T14:04:24;7.30;;;2.20;;
76136;SDS011;68622;53.128;17.966;2023-05-10T14:06:50;9.00;;;2.70;;
76136;SDS011;68622;53.128;17.966;2023-05-10T14:09:16;7.60;;;2.80;;
76136;SDS011;68622;53.128;17.966;2023-05-10T14:11:42;8.20;;;2.30;;
76136;SDS011;68622;53.128;17.966;2023-05-10T14:14:10;8.00;;;3.00;;
76136;SDS011;68622;53.128;17.966;2023-05-10T14:16:36;7.80;;;2.80;;
76136;SDS011;68622;53.128;17.966;2023-05-10T14:19:02;6.90;;;2.20;;
76136;SDS011;68622;53.128;17.966;2023-05-10T14:21:28;8.30;;;2.70;;
76136;SDS011;68622;53.128;17.966;2023-05-10T14:23:57;8.10;;;2.90;;
76136;SDS011;68622;53.128;17.966;2023-05-10T14:26:23;8.60;;;2.30;;
76136;SDS011;68622;53.128;17.966;2023-05-10T14:28:49;7.20;;;2.80;;
76136;SDS011;68622;53.128;17.966;2023-05-10T14:31:15;10.70;;;2.90;;
76136;SDS011;68622;53.128;17.966;2023-05-10T14:33:42;10.20;;;2.70;;
76136;SDS011;68622;53.128;17.966;2023-05-10T14:36:08;9.90;;;2.80;;
76136;SDS011;68622;53.128;17.966;2023-05-10T14:38:34;8.50;;;2.70;;
76136;SDS011;68622;53.128;17.966;2023-05-10T14:41:00;9.50;;;3.30;;
76136;SDS011;68622;53.128;17.966;2023-05-10T14:43:26;6.50;;;2.40;;
76136;SDS011;68622;53.128;17.966;2023-05-10T14:45:53;9.00;;;3.20;;
76136;SDS011;68622;53.128;17.966;2023-05-10T14:48:20;11.80;;;3.30;;
76136;SDS011;68622;53.128;17.966;2023-05-10T14:50:47;10.60;;;2.90;;
76136;SDS011;68622;53.128;17.966;2023-05-10T14:53:12;6.00;;;2.40;;
76136;SDS011;68622;53.128;17.966;2023-05-10T14:55:38;6.20;;;2.40;;
76136;SDS011;68622;53.128;17.966;2023-05-10T14:58:04;8.80;;;2.90;;
76136;SDS011;68622;53.128;17.966;2023-05-10T15:00:30;8.70;;;2.40;;
76136;SDS011;68622;53.128;17.966;2023-05-10T15:02:57;5.80;;;2.30;;
76136;SDS011;68622;53.128;17.966;2023-05-10T15:05:23;7.40;;;3.00;;
76136;SDS011;68622;53.128;17.966;2023-05-10T15:07:49;7.20;;;2.40;;